Terminal Aerodrome Forecast
Issued by NWS

Home | Current Version | Previous Version | Text Only | Print | Product List | Glossary On
Versions: 1 2 3 4 5 6 7 8 9 10 11 12
000
FTUS46 KHNX 172300
TAFMER
TAF
KMER 172320Z 1800/1824 VRB03KT P6SM SCT045 BKN200
     FM180300 33007KT P6SM OVC200
     FM180800 VRB03KT P6SM OVC200
     FM181600 32008KT P6SM SCT100 BKN150
     FM182100 33012KT P6SM BKN080=

USA.gov is the U.S. government's official web portal to all federal, state and local government web resources and services.